< < Back
Terminal Aerodrome Forecast


Current Version              Previous Versions:   1  2  3  4  5  6  7  8  9  

Terminal Aerodrome Forecast

971
FTUS44 KMOB 291749
TAFMOB
TAF
KMOB 291749Z 2918/3018 14009KT P6SM VCTS SCT035CB
     FM300000 16007KT P6SM SCT250
     FM301200 00000KT P6SM SCT250
     FM301500 15005KT P6SM BKN100=

Latest METAR

929
SAUS80 KWBC 291800
MTRMOB
METAR KMOB 291756Z 13007G16KT 10SM SCT034 SCT250 29/20 A3012 RMK AO2 LTG
DSNT E AND W SLP196 CB DSNT E TCU DSNT ALQDS 60000 T02890200
10294 20217 58006


USA.gov is the U.S. government's official web portal to all federal, state and local government web resources and services.